Hovedside
METAR-TAF:

METAR-TAF

Lufthavner :

Monastir, Tunisia

breddegrad: 35-46N, lengdegrad: 010-45E, høyde over havet: 2 m

Gjeldene værobservasjon

Denne rapporten ble laget for 27 minutter siden, klokken 17:30 UTC
Vind 8 kt fra Sørøst
Temperatur 17°C
Luftfuktighet 72%
Trykk 1009 hPa
Sikt: 8000 m
Få skyer i en høyde av 2600 ft

METAR: DTMB 141730Z 13008KT 8000 FEW026 17/12 Q1009

Tid: 18:57 (17:57 UTC)

Varsel

Denne rapporten ble laget for 57 minutter siden, klokken 17:00 UTC
Varsel gyldig fra 14. klokken 18 UTC til 15. klokken 18 UTC
Vind 8 kt fra Sør-sørøst
Sikt 10 km eller mer
Få skyer i en høyde av 2600 ft
Blir
fra 14. klokken 19 UTC til 14. klokken 21 UTC
Vind 18 kt fra Sør-sørvest

TAF: DTMB 141700Z 1418/1518 16008KT 9999 FEW026 BECMG 1419/1421 20018KT

Værobservasjoner og værvarsel for over 4000 flyplasser (METAR- og TAF-rapporter).

Tilgjengelige stasjoner er representert av de røde og gule prikkene på kartet.

Hold musepekeren over prikken for å se navnet på stasjonen.

Klikk så for å se værobservasjoner og -varsler.

For å forandre kartet kan du klikke på den grønne knappen med svart kryss for å zoome inn, på den grønne knappen med strek for å zoome ut, eller på de grønne pilene for å se tilstøtende kart.


METAR-TAF: